모두
Wsmv-Tv Airport (Nashville, TN) TN60 기상
There is no TAF data available at TN60 or any nearby airports.
There is no METAR data available at TN60. Showing METAR data for M02 (24 mi E).
최근 M02 METAR 이력(TN60에 대한 데이터 없음)
| Date | Time (CDT) | Flight Rules | Wind Dir. | Speed | Type | Height AGL (ft) | Visibility | Temp (°C) | Temp (°F) | Dew Point (°C) | Dew Point (°F) | Rel. Humid. | Pressure | Density Altitude | Remarks |
|---|---|---|---|---|---|---|---|---|---|---|---|---|---|---|---|
| 09-5월 | 01:35 | VFR | 200° | 6 kt | 10 miles | 12° | 53° | 10° | 50° | 88% | 29.83 in Hg | 622 ft | |||
| 09-5월 | 01:15 | VFR | 210° | 6 kt | 10 miles | 13° | 55° | 10° | 50° | 82% | 29.84 in Hg | 732 ft | |||
| 09-5월 | 00:55 | VFR | 230° | 4 kt | 10 miles | 13° | 55° | 10° | 50° | 82% | 29.85 in Hg | 722 ft | |||
| 09-5월 | 00:15 | VFR | 220° | 5 kt | 10 miles | 13° | 55° | 10° | 50° | 82% | 29.85 in Hg | 722 ft | |||
| 08-5월 | 23:55 | VFR | 220° | 6 kt | 10 miles | 14° | 57° | 9° | 48° | 72% | 29.84 in Hg | 852 ft | |||
| 08-5월 | 23:15 | VFR | 210° | 8 kt | 10 miles | 15° | 59° | 9° | 48° | 67% | 29.85 in Hg | 962 ft | |||
| 08-5월 | 22:55 | VFR | 210° | 7 kt | 10 miles | 15° | 59° | 9° | 48° | 67% | 29.85 in Hg | 962 ft | Wind gusting to 13 KT | ||
| 08-5월 | 22:15 | VFR | 200° | 9 kt | 10 miles | 16° | 60° | 8° | 46° | 59% | 29.85 in Hg | 1,082 ft | |||
| 08-5월 | 21:55 | VFR | 190° | 7 kt | 10 miles | 16° | 60° | 8° | 46° | 59% | 29.85 in Hg | 1,082 ft | |||
| 08-5월 | 21:15 | VFR | 190° | 8 kt | 10 miles | 17° | 62° | 7° | 44° | 52% | 29.85 in Hg | 1,202 ft | |||
| 08-5월 | 20:55 | VFR | 190° | 5 kt | 10 miles | 17° | 62° | 7° | 44° | 52% | 29.85 in Hg | 1,202 ft | |||
| 08-5월 | 20:35 | VFR | 190° | 6 kt | 10 miles | 17° | 62° | 7° | 44° | 52% | 29.85 in Hg | 1,202 ft | |||
| 08-5월 | 20:15 | VFR | 190° | 6 kt | 10 miles | 18° | 64° | 7° | 44° | 49% | 29.85 in Hg | 1,322 ft | |||
| 08-5월 | 19:55 | VFR | 180° | 6 kt | 10 miles | 19° | 66° | 7° | 44° | 46% | 29.84 in Hg | 1,452 ft | |||
| 08-5월 | 19:15 | VFR | 170° | 4 kt | 10 miles | 20° | 68° | 6° | 42° | 40% | 29.85 in Hg | 1,562 ft | |||
| 08-5월 | 18:55 | VFR | 170° | 5 kt | 10 miles | 21° | 69° | 6° | 42° | 38% | 29.85 in Hg | 1,682 ft | |||
| 08-5월 | 18:35 | VFR | 200° | 7 kt | 10 miles | 22° | 71° | 6° | 42° | 35% | 29.85 in Hg | 1,802 ft | |||
| 08-5월 | 18:15 | VFR | 190° | 6 kt | 10 miles | 22° | 71° | 6° | 42° | 35% | 29.86 in Hg | 1,792 ft | |||
| 08-5월 | 17:55 | VFR | 200° | 6 kt | 10 miles | 23° | 73° | 5° | 41° | 31% | 29.86 in Hg | 1,912 ft | Wind gusting to 12 KT | ||
| 08-5월 | 17:15 | VFR | 190° | 9 kt | 10 miles | 23° | 73° | 5° | 41° | 31% | 29.87 in Hg | 1,902 ft | |||
| 08-5월 | 16:55 | VFR | 200° | 7 kt | 10 miles | 23° | 73° | 5° | 41° | 31% | 29.87 in Hg | 1,902 ft | Wind gusting to 13 KT | ||
| 08-5월 | 16:15 | VFR | Variable | 6 kt | 10 miles | 23° | 73° | 5° | 41° | 31% | 29.87 in Hg | 1,902 ft | |||
| 08-5월 | 15:55 | VFR | 230° | 9 kt | 10 miles | 23° | 73° | 5° | 41° | 31% | 29.88 in Hg | 1,892 ft | |||
| 08-5월 | 15:15 | VFR | 210° | 10 kt | 10 miles | 22° | 71° | 5° | 41° | 33% | 29.89 in Hg | 1,762 ft |
로그인
| 귀하의 브라우저는 지원되지 않습니다.. 브라우저를 업그레이드하세요 |
